• Join FlightAware (Why Join?)
  • Login
  • US Flag 
07:07AM EDT


 

Airport Tracker/Info


-or-


 

Live Flight TrackerFlight Track Log ✈ UAL4888 ✈ 27-Jun-2013 ✈ KIAD - KORF

Flight Track Log - Related Links

Times and Time Zones

All times are in EDT time to prevent confusion due to time zone crossing. See the UAL4888 flight status page for this flight to view local times or setup timezone preferences in your user account.

Time Position Orientation Groundspeed Altitude Reporting Facility
EDT Latitude Longitude Course Direction KTS MPH feet Rate Location/Type
12:17AM 38.9000 -77.4333 180° South 175 201 2,300  Level Potomac TRACON
12:18AM 38.8500 -77.4333 180° South 207 238 3,900 2,040 Climbing Potomac TRACON
12:19AM 38.7833 -77.4500 191° South 241 277 6,200 1,920 Climbing Potomac TRACON
12:21AM 38.4932 -77.7221 212° Southwest  Level FlightAware Approximate
12:21AM 38.6678 -77.5647 218° Southwest 248 285 10,000  Level Washington Center
12:22AM 38.4096 -77.7905 218° Southwest  Level FlightAware Approximate
12:22AM 38.5958 -77.6292 215° Southwest 278 320 10,000  Level Washington Center
12:23AM 38.3308 -77.8667 180° South  Level FlightAware Approximate
12:23AM 38.5367 -77.6858 217° Southwest 301 346 10,000  Level Washington Center
12:24AM 38.4644 -77.7500 215° Southwest 312 359 10,800 1,080 Climbing Washington Center
12:25AM 38.3989 -77.8092 215° Southwest 312 359 12,200 1,260 Climbing Washington Center
12:26AM 38.3308 -77.8706 215° Southwest 312 359 13,500 900 Climbing Washington Center
12:27AM 38.2631 -77.9319 215° Southwest 307 353 14,000 240 Climbing Washington Center
12:28AM 38.1889 -77.9983 215° Southwest 319 367 14,000  Level Washington Center
12:29AM 38.1144 -78.0672 216° Southwest 330 380 14,000  Level Washington Center
12:30AM 38.0358 -78.1281 211° Southwest 335 386 14,000  Level Washington Center
12:31AM 37.9539 -78.0594 147° Southeast 298 343 14,000  Level Washington Center
12:32AM 37.8956 -77.9575 126° Southeast 285 328 14,000  Level Washington Center
12:33AM 37.8392 -77.8558 125° Southeast 321 369 14,000  Level Washington Center
12:34AM 37.7825 -77.7542 125° Southeast 342 394 14,000  Level Washington Center
12:35AM 37.7239 -77.6503 125° Southeast 352 405 14,000  Level Washington Center
12:36AM 37.6672 -77.5464 125° Southeast 358 412 14,000  Level Washington Center
12:37AM 37.6106 -77.4453 125° Southeast 363 418 14,000  Level Washington Center
12:38AM 37.5536 -77.3469 126° Southeast 363 418 14,000  Level Washington Center
12:39AM 37.4903 -77.2381 126° Southeast 352 405 14,000  Level Washington Center
12:40AM 37.4372 -77.1481 127° Southeast 355 409 14,000  Level Washington Center
12:41AM 37.3822 -77.0450 124° Southeast 355 409 14,000  Level Washington Center
12:42AM 37.3208 -76.9447 128° Southeast 356 410 14,000  Level Washington Center
12:43AM 37.2636 -76.8419 125° Southeast 356 410 14,000 -720 Level Washington Center
12:44AM 37.2061 -76.7469 127° Southeast 358 412 12,600 -1,500 Descending Washington Center
12:45AM 37.1569 -76.6550 124° Southeast 329 379 11,200 -1,500 Descending Washington Center
12:46AM 37.1117 -76.5658 122° Southeast 302 348 9,700 -1,620 Descending Washington Center
12:47AM 37.0769 -76.4717 115° Southeast 297 342 8,000 -1,800 Descending Washington Center
12:48AM 37.0589 -76.3728 103° East 288 331 6,200 -1,920 Descending Washington Center
12:49AM 37.0367 -76.2736 106° East 282 325 4,100 -1,800 Descending Washington Center
12:50AM 37.0142 -76.1719 105° East 261 300 2,400 -1,200 Descending Washington Center
12:51AM 36.9853 -76.1144 122° Southeast 180 207 1,600 -600 Descending Washington Center
12:52AM 36.9581 -76.1403 217° Southwest 113 130 1,300 -300 Descending Washington Center